sensor_id;sensor_type;location;lat;lon;timestamp;P1;durP1;ratioP1;P2;durP2;ratioP2
16159;SDS011;8185;57.818;15.224;2023-07-30T00:00:39;2.83;;;2.50;;
16159;SDS011;8185;57.818;15.224;2023-07-30T00:03:07;2.70;;;2.50;;
16159;SDS011;8185;57.818;15.224;2023-07-30T00:05:35;2.83;;;2.60;;
16159;SDS011;8185;57.818;15.224;2023-07-30T00:08:02;2.90;;;2.60;;
16159;SDS011;8185;57.818;15.224;2023-07-30T00:10:30;3.10;;;2.80;;
16159;SDS011;8185;57.818;15.224;2023-07-30T00:12:57;2.37;;;2.17;;
16159;SDS011;8185;57.818;15.224;2023-07-30T00:15:24;5.63;;;2.50;;
16159;SDS011;8185;57.818;15.224;2023-07-30T00:17:51;3.23;;;2.67;;
16159;SDS011;8185;57.818;15.224;2023-07-30T00:20:18;3.50;;;2.30;;
16159;SDS011;8185;57.818;15.224;2023-07-30T00:22:47;2.97;;;2.67;;
16159;SDS011;8185;57.818;15.224;2023-07-30T00:25:14;3.10;;;2.50;;
16159;SDS011;8185;57.818;15.224;2023-07-30T00:27:41;3.03;;;2.27;;
16159;SDS011;8185;57.818;15.224;2023-07-30T00:30:09;2.93;;;2.60;;
16159;SDS011;8185;57.818;15.224;2023-07-30T00:32:37;3.27;;;2.67;;
16159;SDS011;8185;57.818;15.224;2023-07-30T00:35:08;3.00;;;2.70;;
16159;SDS011;8185;57.818;15.224;2023-07-30T00:37:35;3.43;;;2.73;;
16159;SDS011;8185;57.818;15.224;2023-07-30T00:40:05;3.00;;;2.50;;
16159;SDS011;8185;57.818;15.224;2023-07-30T00:42:33;3.20;;;2.90;;
16159;SDS011;8185;57.818;15.224;2023-07-30T00:45:00;5.97;;;3.00;;
16159;SDS011;8185;57.818;15.224;2023-07-30T00:47:28;4.00;;;3.03;;
16159;SDS011;8185;57.818;15.224;2023-07-30T00:49:56;2.73;;;2.50;;
16159;SDS011;8185;57.818;15.224;2023-07-30T00:52:23;3.03;;;2.73;;
16159;SDS011;8185;57.818;15.224;2023-07-30T00:54:52;3.93;;;2.50;;
16159;SDS011;8185;57.818;15.224;2023-07-30T00:57:24;3.80;;;3.30;;
16159;SDS011;8185;57.818;15.224;2023-07-30T00:59:52;2.97;;;2.67;;
16159;SDS011;8185;57.818;15.224;2023-07-30T01:02:21;3.47;;;2.70;;
16159;SDS011;8185;57.818;15.224;2023-07-30T01:04:48;4.23;;;2.83;;
16159;SDS011;8185;57.818;15.224;2023-07-30T01:07:17;3.80;;;3.10;;
16159;SDS011;8185;57.818;15.224;2023-07-30T01:09:44;3.10;;;2.80;;
16159;SDS011;8185;57.818;15.224;2023-07-30T01:12:11;4.70;;;3.10;;
16159;SDS011;8185;57.818;15.224;2023-07-30T01:14:41;3.23;;;2.80;;
16159;SDS011;8185;57.818;15.224;2023-07-30T01:17:09;3.63;;;2.90;;
16159;SDS011;8185;57.818;15.224;2023-07-30T01:19:37;3.67;;;3.20;;
16159;SDS011;8185;57.818;15.224;2023-07-30T01:22:06;4.13;;;2.80;;
16159;SDS011;8185;57.818;15.224;2023-07-30T01:24:33;5.23;;;2.90;;
16159;SDS011;8185;57.818;15.224;2023-07-30T01:27:01;3.60;;;3.03;;
16159;SDS011;8185;57.818;15.224;2023-07-30T01:29:32;5.13;;;3.37;;
16159;SDS011;8185;57.818;15.224;2023-07-30T01:32:05;4.47;;;3.73;;
16159;SDS011;8185;57.818;15.224;2023-07-30T01:34:34;3.77;;;3.47;;
16159;SDS011;8185;57.818;15.224;2023-07-30T01:37:03;5.70;;;4.07;;
16159;SDS011;8185;57.818;15.224;2023-07-30T01:39:33;4.80;;;3.87;;
16159;SDS011;8185;57.818;15.224;2023-07-30T01:42:04;3.70;;;3.40;;
16159;SDS011;8185;57.818;15.224;2023-07-30T01:44:31;5.53;;;3.80;;
16159;SDS011;8185;57.818;15.224;2023-07-30T01:46:58;4.37;;;3.97;;
16159;SDS011;8185;57.818;15.224;2023-07-30T01:49:25;4.43;;;3.73;;
16159;SDS011;8185;57.818;15.224;2023-07-30T01:51:53;3.93;;;3.40;;
16159;SDS011;8185;57.818;15.224;2023-07-30T01:54:20;3.63;;;3.33;;
16159;SDS011;8185;57.818;15.224;2023-07-30T01:56:49;4.10;;;3.80;;
16159;SDS011;8185;57.818;15.224;2023-07-30T01:59:16;3.80;;;3.40;;
16159;SDS011;8185;57.818;15.224;2023-07-30T02:01:43;6.60;;;3.70;;
16159;SDS011;8185;57.818;15.224;2023-07-30T02:04:10;4.20;;;3.80;;
16159;SDS011;8185;57.818;15.224;2023-07-30T02:06:37;4.20;;;3.80;;
16159;SDS011;8185;57.818;15.224;2023-07-30T02:09:04;4.87;;;4.37;;
16159;SDS011;8185;57.818;15.224;2023-07-30T02:11:31;4.40;;;4.00;;
16159;SDS011;8185;57.818;15.224;2023-07-30T02:14:00;4.20;;;3.80;;
16159;SDS011;8185;57.818;15.224;2023-07-30T02:16:27;6.00;;;4.30;;
16159;SDS011;8185;57.818;15.224;2023-07-30T02:18:54;4.53;;;4.00;;
16159;SDS011;8185;57.818;15.224;2023-07-30T02:21:22;4.70;;;4.03;;
16159;SDS011;8185;57.818;15.224;2023-07-30T02:23:49;4.43;;;4.03;;
16159;SDS011;8185;57.818;15.224;2023-07-30T02:26:16;4.30;;;3.90;;
16159;SDS011;8185;57.818;15.224;2023-07-30T02:28:43;4.43;;;3.97;;
16159;SDS011;8185;57.818;15.224;2023-07-30T02:31:12;5.20;;;4.70;;
16159;SDS011;8185;57.818;15.224;2023-07-30T02:33:39;4.70;;;4.30;;
16159;SDS011;8185;57.818;15.224;2023-07-30T02:36:06;5.67;;;4.07;;
16159;SDS011;8185;57.818;15.224;2023-07-30T02:38:33;5.07;;;3.73;;
16159;SDS011;8185;57.818;15.224;2023-07-30T02:41:00;5.90;;;4.07;;
16159;SDS011;8185;57.818;15.224;2023-07-30T02:43:27;4.77;;;3.87;;
16159;SDS011;8185;57.818;15.224;2023-07-30T02:45:55;4.23;;;3.83;;
16159;SDS011;8185;57.818;15.224;2023-07-30T02:48:23;4.37;;;3.90;;
16159;SDS011;8185;57.818;15.224;2023-07-30T02:50:50;4.80;;;3.73;;
16159;SDS011;8185;57.818;15.224;2023-07-30T02:53:17;6.33;;;4.30;;
16159;SDS011;8185;57.818;15.224;2023-07-30T02:55:44;5.17;;;4.10;;
16159;SDS011;8185;57.818;15.224;2023-07-30T02:58:12;4.63;;;4.23;;
16159;SDS011;8185;57.818;15.224;2023-07-30T03:00:39;5.13;;;4.37;;
16159;SDS011;8185;57.818;15.224;2023-07-30T03:03:06;4.53;;;4.00;;
16159;SDS011;8185;57.818;15.224;2023-07-30T03:05:35;5.40;;;4.07;;
16159;SDS011;8185;57.818;15.224;2023-07-30T03:08:02;4.27;;;3.87;;
16159;SDS011;8185;57.818;15.224;2023-07-30T03:10:29;4.57;;;4.17;;
16159;SDS011;8185;57.818;15.224;2023-07-30T03:12:56;5.07;;;4.20;;
16159;SDS011;8185;57.818;15.224;2023-07-30T03:15:23;4.83;;;4.33;;
16159;SDS011;8185;57.818;15.224;2023-07-30T03:17:50;4.43;;;3.97;;
16159;SDS011;8185;57.818;15.224;2023-07-30T03:20:18;4.20;;;3.47;;
16159;SDS011;8185;57.818;15.224;2023-07-30T03:22:46;5.30;;;4.30;;
16159;SDS011;8185;57.818;15.224;2023-07-30T03:25:14;4.23;;;3.93;;
16159;SDS011;8185;57.818;15.224;2023-07-30T03:27:41;5.60;;;3.70;;
16159;SDS011;8185;57.818;15.224;2023-07-30T03:30:08;4.47;;;4.07;;
16159;SDS011;8185;57.818;15.224;2023-07-30T03:32:36;4.30;;;3.90;;
16159;SDS011;8185;57.818;15.224;2023-07-30T03:35:03;4.33;;;3.93;;
16159;SDS011;8185;57.818;15.224;2023-07-30T03:37:31;4.20;;;3.73;;
16159;SDS011;8185;57.818;15.224;2023-07-30T03:39:59;5.70;;;3.93;;
16159;SDS011;8185;57.818;15.224;2023-07-30T03:42:27;5.43;;;4.17;;
16159;SDS011;8185;57.818;15.224;2023-07-30T03:44:54;5.20;;;4.70;;
16159;SDS011;8185;57.818;15.224;2023-07-30T03:47:21;4.70;;;4.20;;
16159;SDS011;8185;57.818;15.224;2023-07-30T03:49:48;5.93;;;4.40;;
16159;SDS011;8185;57.818;15.224;2023-07-30T03:52:15;4.70;;;4.30;;
16159;SDS011;8185;57.818;15.224;2023-07-30T03:54:43;4.60;;;4.20;;
16159;SDS011;8185;57.818;15.224;2023-07-30T03:57:11;4.60;;;4.20;;
16159;SDS011;8185;57.818;15.224;2023-07-30T03:59:38;4.43;;;4.03;;
16159;SDS011;8185;57.818;15.224;2023-07-30T04:02:05;5.63;;;4.40;;
16159;SDS011;8185;57.818;15.224;2023-07-30T04:04:32;4.43;;;4.03;;
16159;SDS011;8185;57.818;15.224;2023-07-30T04:07:00;3.93;;;3.63;;
16159;SDS011;8185;57.818;15.224;2023-07-30T04:09:27;4.00;;;3.60;;
16159;SDS011;8185;57.818;15.224;2023-07-30T04:11:54;4.90;;;3.73;;
16159;SDS011;8185;57.818;15.224;2023-07-30T04:14:22;5.93;;;4.20;;
16159;SDS011;8185;57.818;15.224;2023-07-30T04:16:49;4.30;;;3.90;;
16159;SDS011;8185;57.818;15.224;2023-07-30T04:19:17;4.33;;;3.93;;
16159;SDS011;8185;57.818;15.224;2023-07-30T04:21:44;4.60;;;4.20;;
16159;SDS011;8185;57.818;15.224;2023-07-30T04:24:11;4.10;;;3.70;;
16159;SDS011;8185;57.818;15.224;2023-07-30T04:26:38;4.57;;;4.17;;
16159;SDS011;8185;57.818;15.224;2023-07-30T04:29:05;4.77;;;4.37;;
16159;SDS011;8185;57.818;15.224;2023-07-30T04:31:34;4.60;;;4.20;;
16159;SDS011;8185;57.818;15.224;2023-07-30T04:34:01;9.23;;;4.60;;
16159;SDS011;8185;57.818;15.224;2023-07-30T04:36:28;5.20;;;4.60;;
16159;SDS011;8185;57.818;15.224;2023-07-30T04:38:55;4.77;;;4.40;;
16159;SDS011;8185;57.818;15.224;2023-07-30T04:41:23;4.50;;;4.10;;
16159;SDS011;8185;57.818;15.224;2023-07-30T04:43:50;7.67;;;4.43;;
16159;SDS011;8185;57.818;15.224;2023-07-30T04:46:17;4.70;;;4.03;;
16159;SDS011;8185;57.818;15.224;2023-07-30T04:48:45;4.93;;;3.93;;
16159;SDS011;8185;57.818;15.224;2023-07-30T04:51:13;4.90;;;4.33;;
16159;SDS011;8185;57.818;15.224;2023-07-30T04:53:40;5.27;;;4.77;;
16159;SDS011;8185;57.818;15.224;2023-07-30T04:56:07;6.50;;;4.47;;
16159;SDS011;8185;57.818;15.224;2023-07-30T04:58:34;5.03;;;4.23;;
16159;SDS011;8185;57.818;15.224;2023-07-30T05:01:01;4.87;;;4.47;;
16159;SDS011;8185;57.818;15.224;2023-07-30T05:03:28;6.37;;;4.40;;
16159;SDS011;8185;57.818;15.224;2023-07-30T05:05:57;5.63;;;4.30;;
16159;SDS011;8185;57.818;15.224;2023-07-30T05:08:24;5.13;;;4.63;;
16159;SDS011;8185;57.818;15.224;2023-07-30T05:10:51;4.90;;;4.30;;
16159;SDS011;8185;57.818;15.224;2023-07-30T05:13:18;5.10;;;4.17;;
16159;SDS011;8185;57.818;15.224;2023-07-30T05:15:45;4.97;;;4.47;;
16159;SDS011;8185;57.818;15.224;2023-07-30T05:18:13;5.40;;;4.17;;
16159;SDS011;8185;57.818;15.224;2023-07-30T05:20:40;3.83;;;3.53;;
16159;SDS011;8185;57.818;15.224;2023-07-30T05:23:08;4.50;;;4.10;;
16159;SDS011;8185;57.818;15.224;2023-07-30T05:25:35;4.30;;;3.73;;
16159;SDS011;8185;57.818;15.224;2023-07-30T05:28:03;4.10;;;3.70;;
16159;SDS011;8185;57.818;15.224;2023-07-30T05:30:30;4.70;;;3.87;;
16159;SDS011;8185;57.818;15.224;2023-07-30T05:32:57;4.10;;;3.70;;
16159;SDS011;8185;57.818;15.224;2023-07-30T05:35:24;4.37;;;3.70;;
16159;SDS011;8185;57.818;15.224;2023-07-30T05:37:51;4.73;;;3.87;;
16159;SDS011;8185;57.818;15.224;2023-07-30T05:40:20;4.20;;;3.80;;
16159;SDS011;8185;57.818;15.224;2023-07-30T05:42:47;4.17;;;3.77;;
16159;SDS011;8185;57.818;15.224;2023-07-30T05:45:14;4.43;;;3.83;;
16159;SDS011;8185;57.818;15.224;2023-07-30T05:47:42;3.47;;;3.17;;
16159;SDS011;8185;57.818;15.224;2023-07-30T05:50:09;5.67;;;3.47;;
16159;SDS011;8185;57.818;15.224;2023-07-30T05:52:36;3.67;;;3.00;;
16159;SDS011;8185;57.818;15.224;2023-07-30T05:55:04;5.00;;;3.40;;
16159;SDS011;8185;57.818;15.224;2023-07-30T05:57:33;3.57;;;3.10;;
16159;SDS011;8185;57.818;15.224;2023-07-30T06:00:00;3.03;;;2.83;;
16159;SDS011;8185;57.818;15.224;2023-07-30T06:02:28;3.00;;;2.80;;
16159;SDS011;8185;57.818;15.224;2023-07-30T06:04:55;2.80;;;2.60;;
16159;SDS011;8185;57.818;15.224;2023-07-30T06:07:22;3.13;;;2.93;;
16159;SDS011;8185;57.818;15.224;2023-07-30T06:09:49;2.93;;;2.67;;
16159;SDS011;8185;57.818;15.224;2023-07-30T06:12:16;3.17;;;2.87;;
16159;SDS011;8185;57.818;15.224;2023-07-30T06:14:45;3.30;;;3.00;;
16159;SDS011;8185;57.818;15.224;2023-07-30T06:17:12;3.53;;;2.90;;
16159;SDS011;8185;57.818;15.224;2023-07-30T06:19:39;3.00;;;2.70;;
16159;SDS011;8185;57.818;15.224;2023-07-30T06:22:06;2.50;;;2.30;;
16159;SDS011;8185;57.818;15.224;2023-07-30T06:24:33;2.73;;;2.53;;
16159;SDS011;8185;57.818;15.224;2023-07-30T06:27:01;3.13;;;2.50;;
16159;SDS011;8185;57.818;15.224;2023-07-30T06:29:28;2.90;;;2.33;;
16159;SDS011;8185;57.818;15.224;2023-07-30T06:31:56;4.10;;;2.40;;
16159;SDS011;8185;57.818;15.224;2023-07-30T06:34:24;4.00;;;2.60;;
16159;SDS011;8185;57.818;15.224;2023-07-30T06:36:51;2.40;;;2.20;;
16159;SDS011;8185;57.818;15.224;2023-07-30T06:39:18;2.47;;;2.27;;
16159;SDS011;8185;57.818;15.224;2023-07-30T06:41:46;2.30;;;2.10;;
16159;SDS011;8185;57.818;15.224;2023-07-30T06:44:13;2.40;;;2.20;;
16159;SDS011;8185;57.818;15.224;2023-07-30T06:46:41;2.30;;;2.10;;
16159;SDS011;8185;57.818;15.224;2023-07-30T06:49:09;2.60;;;2.40;;
16159;SDS011;8185;57.818;15.224;2023-07-30T06:51:37;2.83;;;2.47;;
16159;SDS011;8185;57.818;15.224;2023-07-30T06:54:04;2.50;;;2.30;;
16159;SDS011;8185;57.818;15.224;2023-07-30T06:56:31;2.80;;;2.20;;
16159;SDS011;8185;57.818;15.224;2023-07-30T06:58:58;2.40;;;2.20;;
16159;SDS011;8185;57.818;15.224;2023-07-30T07:01:26;2.10;;;1.90;;
16159;SDS011;8185;57.818;15.224;2023-07-30T07:03:53;2.23;;;1.93;;
16159;SDS011;8185;57.818;15.224;2023-07-30T07:06:22;2.63;;;2.13;;
16159;SDS011;8185;57.818;15.224;2023-07-30T07:08:49;2.30;;;1.80;;
16159;SDS011;8185;57.818;15.224;2023-07-30T07:11:16;3.37;;;1.90;;
16159;SDS011;8185;57.818;15.224;2023-07-30T07:13:43;1.53;;;1.43;;
16159;SDS011;8185;57.818;15.224;2023-07-30T07:16:10;1.40;;;1.30;;
16159;SDS011;8185;57.818;15.224;2023-07-30T07:18:37;1.60;;;1.40;;
16159;SDS011;8185;57.818;15.224;2023-07-30T07:21:04;1.40;;;1.30;;
16159;SDS011;8185;57.818;15.224;2023-07-30T07:23:33;1.60;;;1.50;;
16159;SDS011;8185;57.818;15.224;2023-07-30T07:26:00;1.47;;;1.37;;
16159;SDS011;8185;57.818;15.224;2023-07-30T07:28:28;1.20;;;1.10;;
16159;SDS011;8185;57.818;15.224;2023-07-30T07:30:55;2.03;;;1.40;;
16159;SDS011;8185;57.818;15.224;2023-07-30T07:33:22;1.17;;;1.07;;
16159;SDS011;8185;57.818;15.224;2023-07-30T07:35:49;1.53;;;1.30;;
16159;SDS011;8185;57.818;15.224;2023-07-30T07:38:16;1.40;;;1.30;;
16159;SDS011;8185;57.818;15.224;2023-07-30T07:40:45;1.47;;;1.17;;
16159;SDS011;8185;57.818;15.224;2023-07-30T07:43:12;2.00;;;1.20;;
16159;SDS011;8185;57.818;15.224;2023-07-30T07:45:39;1.67;;;1.37;;
16159;SDS011;8185;57.818;15.224;2023-07-30T07:48:07;1.57;;;1.20;;
16159;SDS011;8185;57.818;15.224;2023-07-30T07:50:34;1.37;;;1.20;;
16159;SDS011;8185;57.818;15.224;2023-07-30T07:53:01;1.13;;;1.03;;
16159;SDS011;8185;57.818;15.224;2023-07-30T07:55:28;1.23;;;1.10;;
16159;SDS011;8185;57.818;15.224;2023-07-30T07:57:57;1.20;;;1.10;;
16159;SDS011;8185;57.818;15.224;2023-07-30T08:00:24;2.30;;;1.30;;
16159;SDS011;8185;57.818;15.224;2023-07-30T08:02:51;1.30;;;1.13;;
16159;SDS011;8185;57.818;15.224;2023-07-30T08:05:18;2.07;;;1.30;;
16159;SDS011;8185;57.818;15.224;2023-07-30T08:07:46;1.67;;;1.30;;
16159;SDS011;8185;57.818;15.224;2023-07-30T08:10:13;1.87;;;1.40;;
16159;SDS011;8185;57.818;15.224;2023-07-30T08:12:41;1.50;;;1.30;;
16159;SDS011;8185;57.818;15.224;2023-07-30T08:15:10;1.20;;;1.10;;
16159;SDS011;8185;57.818;15.224;2023-07-30T08:17:37;1.63;;;1.30;;
16159;SDS011;8185;57.818;15.224;2023-07-30T08:20:04;1.10;;;1.00;;
16159;SDS011;8185;57.818;15.224;2023-07-30T08:22:32;1.33;;;1.23;;
16159;SDS011;8185;57.818;15.224;2023-07-30T08:25:00;2.87;;;1.13;;
16159;SDS011;8185;57.818;15.224;2023-07-30T08:27:27;1.67;;;1.20;;
16159;SDS011;8185;57.818;15.224;2023-07-30T08:29:55;2.90;;;1.10;;
16159;SDS011;8185;57.818;15.224;2023-07-30T08:32:23;1.97;;;1.20;;
16159;SDS011;8185;57.818;15.224;2023-07-30T08:34:50;1.53;;;1.00;;
16159;SDS011;8185;57.818;15.224;2023-07-30T08:37:17;1.60;;;1.10;;
16159;SDS011;8185;57.818;15.224;2023-07-30T08:39:45;1.40;;;1.17;;
16159;SDS011;8185;57.818;15.224;2023-07-30T08:42:12;1.50;;;1.40;;
16159;SDS011;8185;57.818;15.224;2023-07-30T08:44:39;2.90;;;1.47;;
16159;SDS011;8185;57.818;15.224;2023-07-30T08:47:06;1.77;;;1.27;;
16159;SDS011;8185;57.818;15.224;2023-07-30T08:49:35;1.57;;;1.13;;
16159;SDS011;8185;57.818;15.224;2023-07-30T08:52:03;2.03;;;1.30;;
16159;SDS011;8185;57.818;15.224;2023-07-30T08:54:32;2.23;;;1.33;;
16159;SDS011;8185;57.818;15.224;2023-07-30T08:57:02;2.30;;;1.33;;
16159;SDS011;8185;57.818;15.224;2023-07-30T08:59:31;1.43;;;1.10;;
16159;SDS011;8185;57.818;15.224;2023-07-30T09:02:03;1.10;;;1.00;;
16159;SDS011;8185;57.818;15.224;2023-07-30T09:04:37;1.37;;;1.20;;
16159;SDS011;8185;57.818;15.224;2023-07-30T09:07:08;1.73;;;1.10;;
16159;SDS011;8185;57.818;15.224;2023-07-30T09:09:35;2.07;;;1.23;;
16159;SDS011;8185;57.818;15.224;2023-07-30T09:12:04;3.00;;;1.30;;
16159;SDS011;8185;57.818;15.224;2023-07-30T09:14:39;1.80;;;1.10;;
16159;SDS011;8185;57.818;15.224;2023-07-30T09:17:09;0.80;;;0.80;;
16159;SDS011;8185;57.818;15.224;2023-07-30T09:19:38;1.00;;;0.90;;
16159;SDS011;8185;57.818;15.224;2023-07-30T09:22:05;1.57;;;1.30;;
16159;SDS011;8185;57.818;15.224;2023-07-30T09:24:33;1.73;;;1.20;;
16159;SDS011;8185;57.818;15.224;2023-07-30T09:27:01;2.30;;;1.17;;
16159;SDS011;8185;57.818;15.224;2023-07-30T09:29:29;2.00;;;1.20;;
16159;SDS011;8185;57.818;15.224;2023-07-30T09:31:56;1.20;;;1.10;;
16159;SDS011;8185;57.818;15.224;2023-07-30T09:34:24;2.10;;;1.20;;
16159;SDS011;8185;57.818;15.224;2023-07-30T09:36:53;1.60;;;1.10;;
16159;SDS011;8185;57.818;15.224;2023-07-30T09:39:22;1.43;;;1.03;;
16159;SDS011;8185;57.818;15.224;2023-07-30T09:41:51;1.83;;;0.87;;
16159;SDS011;8185;57.818;15.224;2023-07-30T09:44:19;1.00;;;0.90;;
16159;SDS011;8185;57.818;15.224;2023-07-30T09:46:48;1.00;;;0.83;;
16159;SDS011;8185;57.818;15.224;2023-07-30T09:49:16;2.43;;;1.10;;
16159;SDS011;8185;57.818;15.224;2023-07-30T09:51:44;1.13;;;1.03;;
16159;SDS011;8185;57.818;15.224;2023-07-30T09:54:13;1.37;;;0.97;;
16159;SDS011;8185;57.818;15.224;2023-07-30T09:56:41;1.27;;;0.83;;
16159;SDS011;8185;57.818;15.224;2023-07-30T09:59:09;1.33;;;1.10;;
16159;SDS011;8185;57.818;15.224;2023-07-30T10:01:37;1.90;;;1.10;;
16159;SDS011;8185;57.818;15.224;2023-07-30T10:04:08;2.50;;;1.07;;
16159;SDS011;8185;57.818;15.224;2023-07-30T10:06:36;1.35;;;1.17;;
16159;SDS011;8185;57.818;15.224;2023-07-30T10:09:08;3.03;;;1.42;;
16159;SDS011;8185;57.818;15.224;2023-07-30T10:11:40;2.55;;;1.30;;
16159;SDS011;8185;57.818;15.224;2023-07-30T10:14:08;3.78;;;0.93;;
16159;SDS011;8185;57.818;15.224;2023-07-30T10:16:36;1.58;;;1.10;;
16159;SDS011;8185;57.818;15.224;2023-07-30T10:19:03;1.13;;;1.00;;
16159;SDS011;8185;57.818;15.224;2023-07-30T10:21:32;2.10;;;1.17;;
16159;SDS011;8185;57.818;15.224;2023-07-30T10:24:00;2.20;;;1.17;;
16159;SDS011;8185;57.818;15.224;2023-07-30T10:26:29;1.20;;;0.82;;
16159;SDS011;8185;57.818;15.224;2023-07-30T10:29:12;2.10;;;0.95;;
16159;SDS011;8185;57.818;15.224;2023-07-30T10:31:40;1.52;;;1.10;;
16159;SDS011;8185;57.818;15.224;2023-07-30T10:34:08;1.23;;;1.10;;
16159;SDS011;8185;57.818;15.224;2023-07-30T10:36:40;1.98;;;0.82;;
16159;SDS011;8185;57.818;15.224;2023-07-30T10:39:13;1.20;;;1.00;;
16159;SDS011;8185;57.818;15.224;2023-07-30T10:41:42;1.55;;;1.20;;
16159;SDS011;8185;57.818;15.224;2023-07-30T10:44:19;1.20;;;1.10;;
16159;SDS011;8185;57.818;15.224;2023-07-30T10:46:49;1.48;;;1.00;;
16159;SDS011;8185;57.818;15.224;2023-07-30T10:49:17;1.63;;;0.80;;
16159;SDS011;8185;57.818;15.224;2023-07-30T10:51:44;1.00;;;0.90;;
16159;SDS011;8185;57.818;15.224;2023-07-30T10:54:11;1.15;;;0.93;;
16159;SDS011;8185;57.818;15.224;2023-07-30T10:56:40;1.15;;;0.90;;
16159;SDS011;8185;57.818;15.224;2023-07-30T10:59:08;1.35;;;0.75;;
16159;SDS011;8185;57.818;15.224;2023-07-30T11:01:37;0.88;;;0.85;;
16159;SDS011;8185;57.818;15.224;2023-07-30T11:04:06;2.35;;;0.77;;
16159;SDS011;8185;57.818;15.224;2023-07-30T11:06:35;1.33;;;0.80;;
16159;SDS011;8185;57.818;15.224;2023-07-30T11:09:02;2.88;;;0.98;;
16159;SDS011;8185;57.818;15.224;2023-07-30T11:11:30;1.35;;;0.95;;
16159;SDS011;8185;57.818;15.224;2023-07-30T11:13:57;1.60;;;0.80;;
16159;SDS011;8185;57.818;15.224;2023-07-30T11:16:29;1.20;;;0.80;;
16159;SDS011;8185;57.818;15.224;2023-07-30T11:18:57;1.92;;;1.10;;
16159;SDS011;8185;57.818;15.224;2023-07-30T11:21:25;1.27;;;0.80;;
16159;SDS011;8185;57.818;15.224;2023-07-30T11:23:52;1.45;;;0.82;;
16159;SDS011;8185;57.818;15.224;2023-07-30T11:26:19;0.98;;;0.88;;
16159;SDS011;8185;57.818;15.224;2023-07-30T11:28:46;1.15;;;0.77;;
16159;SDS011;8185;57.818;15.224;2023-07-30T11:31:15;1.27;;;0.80;;
16159;SDS011;8185;57.818;15.224;2023-07-30T11:33:44;1.55;;;0.80;;
16159;SDS011;8185;57.818;15.224;2023-07-30T11:36:14;2.80;;;1.17;;
16159;SDS011;8185;57.818;15.224;2023-07-30T11:38:42;1.75;;;0.90;;
16159;SDS011;8185;57.818;15.224;2023-07-30T11:41:11;1.80;;;0.88;;
16159;SDS011;8185;57.818;15.224;2023-07-30T11:43:40;2.63;;;0.90;;
16159;SDS011;8185;57.818;15.224;2023-07-30T11:46:10;1.90;;;1.07;;
16159;SDS011;8185;57.818;15.224;2023-07-30T11:48:39;2.17;;;1.60;;
16159;SDS011;8185;57.818;15.224;2023-07-30T11:51:17;1.50;;;1.20;;
16159;SDS011;8185;57.818;15.224;2023-07-30T11:53:47;3.53;;;1.23;;
16159;SDS011;8185;57.818;15.224;2023-07-30T11:56:16;2.80;;;1.50;;
16159;SDS011;8185;57.818;15.224;2023-07-30T11:58:45;2.43;;;1.70;;
16159;SDS011;8185;57.818;15.224;2023-07-30T12:01:13;2.97;;;2.00;;
16159;SDS011;8185;57.818;15.224;2023-07-30T12:03:40;1.70;;;1.30;;
16159;SDS011;8185;57.818;15.224;2023-07-30T12:06:08;1.57;;;1.30;;
16159;SDS011;8185;57.818;15.224;2023-07-30T12:08:38;1.70;;;1.60;;
16159;SDS011;8185;57.818;15.224;2023-07-30T12:11:05;4.10;;;1.63;;
16159;SDS011;8185;57.818;15.224;2023-07-30T12:13:33;1.73;;;1.33;;
16159;SDS011;8185;57.818;15.224;2023-07-30T12:16:08;1.13;;;1.03;;
16159;SDS011;8185;57.818;15.224;2023-07-30T12:18:37;1.53;;;0.90;;
16159;SDS011;8185;57.818;15.224;2023-07-30T12:21:06;1.30;;;1.00;;
16159;SDS011;8185;57.818;15.224;2023-07-30T12:23:35;1.23;;;0.80;;
16159;SDS011;8185;57.818;15.224;2023-07-30T12:26:04;1.00;;;0.87;;
16159;SDS011;8185;57.818;15.224;2023-07-30T12:28:32;1.53;;;1.20;;
16159;SDS011;8185;57.818;15.224;2023-07-30T12:31:00;1.93;;;1.30;;
16159;SDS011;8185;57.818;15.224;2023-07-30T12:33:27;2.37;;;1.03;;
16159;SDS011;8185;57.818;15.224;2023-07-30T12:35:54;3.43;;;1.43;;
16159;SDS011;8185;57.818;15.224;2023-07-30T12:38:21;1.57;;;1.20;;
16159;SDS011;8185;57.818;15.224;2023-07-30T12:40:50;6.40;;;1.40;;
16159;SDS011;8185;57.818;15.224;2023-07-30T12:43:17;2.10;;;1.30;;
16159;SDS011;8185;57.818;15.224;2023-07-30T12:45:46;2.03;;;1.07;;
16159;SDS011;8185;57.818;15.224;2023-07-30T12:48:13;1.63;;;0.87;;
16159;SDS011;8185;57.818;15.224;2023-07-30T12:50:40;1.30;;;1.10;;
16159;SDS011;8185;57.818;15.224;2023-07-30T12:53:08;2.17;;;1.00;;
16159;SDS011;8185;57.818;15.224;2023-07-30T12:55:35;1.10;;;0.90;;
16159;SDS011;8185;57.818;15.224;2023-07-30T12:58:04;0.87;;;0.83;;
16159;SDS011;8185;57.818;15.224;2023-07-30T13:00:33;1.37;;;1.00;;
16159;SDS011;8185;57.818;15.224;2023-07-30T13:03:00;1.50;;;1.00;;
16159;SDS011;8185;57.818;15.224;2023-07-30T13:05:28;3.43;;;1.13;;
16159;SDS011;8185;57.818;15.224;2023-07-30T13:07:55;1.77;;;1.30;;
16159;SDS011;8185;57.818;15.224;2023-07-30T13:10:22;1.40;;;1.00;;
16159;SDS011;8185;57.818;15.224;2023-07-30T13:12:50;1.73;;;1.07;;
16159;SDS011;8185;57.818;15.224;2023-07-30T13:15:18;4.10;;;1.03;;
16159;SDS011;8185;57.818;15.224;2023-07-30T13:17:45;2.20;;;0.90;;
16159;SDS011;8185;57.818;15.224;2023-07-30T13:20:13;1.40;;;0.90;;
16159;SDS011;8185;57.818;15.224;2023-07-30T13:22:40;1.93;;;1.07;;
16159;SDS011;8185;57.818;15.224;2023-07-30T13:25:07;0.82;;;0.82;;
16159;SDS011;8185;57.818;15.224;2023-07-30T13:27:34;1.33;;;1.23;;
16159;SDS011;8185;57.818;15.224;2023-07-30T13:30:01;1.40;;;1.30;;
16159;SDS011;8185;57.818;15.224;2023-07-30T13:32:30;1.67;;;1.20;;
16159;SDS011;8185;57.818;15.224;2023-07-30T13:34:57;1.20;;;1.10;;
16159;SDS011;8185;57.818;15.224;2023-07-30T13:37:24;1.63;;;1.00;;
16159;SDS011;8185;57.818;15.224;2023-07-30T13:39:52;3.05;;;0.95;;
16159;SDS011;8185;57.818;15.224;2023-07-30T13:42:19;2.15;;;1.08;;
16159;SDS011;8185;57.818;15.224;2023-07-30T13:44:46;1.25;;;0.80;;
16159;SDS011;8185;57.818;15.224;2023-07-30T13:47:13;1.77;;;0.82;;
16159;SDS011;8185;57.818;15.224;2023-07-30T13:49:42;4.00;;;1.17;;
16159;SDS011;8185;57.818;15.224;2023-07-30T13:52:09;1.83;;;0.80;;
16159;SDS011;8185;57.818;15.224;2023-07-30T13:54:36;1.50;;;0.80;;
16159;SDS011;8185;57.818;15.224;2023-07-30T13:57:04;3.38;;;0.93;;
16159;SDS011;8185;57.818;15.224;2023-07-30T13:59:31;2.92;;;0.60;;
16159;SDS011;8185;57.818;15.224;2023-07-30T14:01:58;3.00;;;0.93;;
16159;SDS011;8185;57.818;15.224;2023-07-30T14:04:25;1.55;;;0.70;;
16159;SDS011;8185;57.818;15.224;2023-07-30T14:06:54;2.85;;;0.93;;
16159;SDS011;8185;57.818;15.224;2023-07-30T14:09:21;2.15;;;0.93;;
16159;SDS011;8185;57.818;15.224;2023-07-30T14:11:50;1.70;;;0.75;;
16159;SDS011;8185;57.818;15.224;2023-07-30T14:14:17;2.33;;;0.98;;
16159;SDS011;8185;57.818;15.224;2023-07-30T14:16:46;3.05;;;0.95;;
16159;SDS011;8185;57.818;15.224;2023-07-30T14:19:13;1.80;;;1.00;;
16159;SDS011;8185;57.818;15.224;2023-07-30T14:21:40;2.10;;;1.23;;
16159;SDS011;8185;57.818;15.224;2023-07-30T14:24:10;2.88;;;0.90;;
16159;SDS011;8185;57.818;15.224;2023-07-30T14:26:37;1.95;;;1.00;;
16159;SDS011;8185;57.818;15.224;2023-07-30T14:29:05;2.58;;;0.75;;
16159;SDS011;8185;57.818;15.224;2023-07-30T14:31:32;2.38;;;1.27;;
16159;SDS011;8185;57.818;15.224;2023-07-30T14:33:59;2.95;;;0.85;;
16159;SDS011;8185;57.818;15.224;2023-07-30T14:36:26;1.77;;;0.63;;
16159;SDS011;8185;57.818;15.224;2023-07-30T14:38:53;1.67;;;0.90;;
16159;SDS011;8185;57.818;15.224;2023-07-30T14:41:22;2.80;;;0.75;;
16159;SDS011;8185;57.818;15.224;2023-07-30T14:43:49;2.40;;;0.85;;
16159;SDS011;8185;57.818;15.224;2023-07-30T14:46:16;3.55;;;1.02;;
16159;SDS011;8185;57.818;15.224;2023-07-30T14:48:44;2.60;;;0.98;;
16159;SDS011;8185;57.818;15.224;2023-07-30T14:51:11;1.55;;;0.60;;